Latest Weather Observations for Clare

IDS60801

Issued at 2:01 pm CST Sunday 28 May 2017 (issued every 30 minutes, with the page automatically refreshed every 10 minutes)

About weather observations | Map of weather stations | Latest weather observations for SA | Other Formats
Station Details ID: 021131 Name: CLARE HIGH SCHOOL Lat: -33.82 Lon: 138.59 Height: 395.0 m
Data from the previous 72 hours. | See also: Recent months at Clare
Date/Time
CST
Temp
°C
App
Temp
°C
Dew
Point
°C
Rel
Hum
%
Delta-T
°C
Wind Press
QNH
hPa
Press
MSL
hPa
Rain since
9am
mm
Dir  Spd
km/h
Gust
km/h
Spd
kts
Gust
kts
28/02:00pm 11.2 6.8 8.9 86 1.2 W 22 33 12 18 1015.8 - 1.0
28/01:30pm 10.7 6.8 9.3 91 0.7 W 20 30 11 16 1016.0 - 1.0
28/01:00pm 11.3 6.9 7.6 78 1.8 W 20 43 11 23 1015.8 - 1.0
28/12:30pm 11.2 6.3 8.6 84 1.3 W 24 41 13 22 1016.0 - 1.0
28/12:00pm 10.6 6.8 9.8 95 0.4 W 20 33 11 18 1016.3 1016.3 1.0
28/11:30am 9.6 6.2 9.0 96 0.3 W 17 30 9 16 1016.5 - 0.4
28/11:00am 10.3 6.4 8.7 90 0.8 WSW 19 32 10 17 1016.7 - 0.0
28/10:30am 10.4 6.5 8.5 88 1.0 W 19 32 10 17 1016.7 - 0.0
28/10:00am 10.8 6.8 8.2 84 1.3 W 19 32 10 17 1016.5 - 0.0
28/09:30am 9.4 6.4 9.3 99 0.1 WNW 15 28 8 15 1016.4 - 0.0
28/09:00am 8.7 4.8 8.6 99 0.0 W 19 28 10 15 1016.1 1016.1 4.0
28/08:30am 8.0 4.7 7.9 99 0.0 W 15 22 8 12 1015.9 - 4.0
28/08:00am 7.9 4.5 7.8 99 0.0 WNW 15 22 8 12 1015.5 - 4.0
28/07:30am 7.5 4.4 7.4 99 0.0 WNW 13 20 7 11 1015.3 - 3.8
28/07:00am 7.6 4.9 7.5 99 0.0 W 11 17 6 9 1015.0 - 3.8
28/06:30am 7.4 5.1 7.3 99 0.0 W 9 13 5 7 1014.9 - 3.8
28/06:00am 7.4 4.7 7.3 99 0.0 W 11 17 6 9 1014.8 1014.8 3.8
28/05:30am 7.9 4.8 7.3 96 0.3 WNW 13 20 7 11 1014.6 - 3.4
28/05:00am 7.8 3.9 6.9 94 0.4 WNW 17 24 9 13 1014.3 - 3.4
28/04:30am 7.9 4.3 6.8 93 0.5 WNW 15 24 8 13 1014.1 - 3.4
28/04:00am 7.7 4.1 6.6 93 0.5 W 15 22 8 12 1014.2 - 3.4
28/03:30am 8.0 4.8 6.8 92 0.6 W 13 20 7 11 1014.1 - 3.4
28/03:00am 8.6 5.2 7.7 94 0.4 W 15 22 8 12 1014.2 1014.2 3.4
28/02:30am 8.5 5.5 7.6 94 0.4 W 13 22 7 12 1014.3 - 3.4
28/02:00am 8.5 5.2 8.1 97 0.2 W 15 24 8 13 1014.2 - 3.4
28/01:30am 8.6 5.8 8.5 99 0.0 W 13 20 7 11 1014.1 - 3.4
28/01:00am 8.8 5.7 8.7 99 0.0 W 15 20 8 11 1014.3 - 3.4
28/12:30am 8.9 5.8 8.8 99 0.0 W 15 20 8 11 1014.4 - 3.4
28/12:00am 9.4 6.4 9.3 99 0.1 W 15 24 8 13 1014.6 1014.6 3.2
 
Date/Time
CST
Temp
°C
App
Temp
°C
Dew
Point
°C
Rel
Hum
%
Delta-T
°C
Wind Press
QNH
hPa
Press
MSL
hPa
Rain since
9am
mm
Dir  Spd
km/h
Gust
km/h
Spd
kts
Gust
kts
27/11:30pm 9.6 6.3 9.5 99 0.1 W 17 28 9 15 1014.6 - 3.2
27/11:00pm 9.7 6.8 9.6 99 0.1 W 15 24 8 13 1014.7 - 3.2
27/10:30pm 9.7 7.2 9.6 99 0.1 W 13 24 7 13 1014.9 - 3.2
27/10:00pm 9.9 7.0 9.8 99 0.1 W 15 22 8 12 1014.8 - 3.2
27/09:30pm 10.1 7.7 9.9 99 0.1 WSW 13 26 7 14 1014.6 - 3.2
27/09:00pm 10.5 7.0 10.3 99 0.1 WSW 19 35 10 19 1014.4 1014.4 3.2
27/08:30pm 11.1 8.1 10.8 98 0.2 W 17 30 9 16 1013.7 - 2.2
27/08:00pm 11.4 7.6 9.8 90 0.8 W 20 32 11 17 1013.7 - 1.6
27/07:30pm 11.7 8.9 11.5 99 0.1 WSW 17 32 9 17 1013.4 - 1.6
27/07:00pm 12.3 9.6 11.7 96 0.3 WSW 17 33 9 18 1013.1 - 1.6
27/06:30pm 12.6 10.5 12.3 98 0.2 W 15 28 8 15 1013.1 - 1.6
27/06:00pm 12.5 10.4 11.1 91 0.7 W 13 28 7 15 1012.9 1012.8 1.0
27/05:30pm 12.4 9.1 9.6 83 1.5 W 17 22 9 12 1012.4 - 1.0
27/05:00pm 12.5 8.8 10.0 85 1.3 W 20 48 11 26 1012.3 - 1.0
27/04:53pm 13.3 7.9 9.4 77 2.0 WNW 28 48 15 26 1012.2 - 0.8
27/04:30pm 16.4 12.3 6.0 50 5.2 NW 17 30 9 16 1011.6 - 0.0
27/04:00pm 17.5 13.0 6.1 47 5.7 NW 19 30 10 16 1011.8 - 0.0
27/03:30pm 17.5 12.9 6.4 48 5.6 NW 20 33 11 18 1012.0 - 0.0
27/03:00pm 17.9 13.5 6.4 47 5.8 NW 19 32 10 17 1012.1 1012.1 0.0
27/02:30pm 17.5 12.4 6.1 47 5.7 NW 22 35 12 19 1012.3 - 0.0
27/02:00pm 17.6 13.1 6.8 49 5.5 WNW 20 35 11 19 1012.4 - 0.0
27/01:30pm 17.1 11.4 6.6 50 5.3 WNW 26 39 14 21 1012.8 - 0.0
27/01:00pm 17.2 11.4 6.4 49 5.4 WNW 26 39 14 21 1013.2 - 0.0
27/12:30pm 17.4 11.2 6.0 47 5.7 WNW 28 48 15 26 1013.5 - 0.0
27/12:00pm 17.7 11.4 5.6 45 6.0 NW 28 48 15 26 1013.9 1013.9 0.0
27/11:47am 17.3 11.1 6.2 48 5.6 NW 28 48 15 26 1014.1 - 0.0
27/11:30am 17.1 11.8 6.6 50 5.3 NW 24 39 13 21 1014.4 - 0.0
27/11:00am 16.3 11.4 6.7 53 4.8 NW 22 43 12 23 1015.1 - 0.0
27/10:30am 15.4 11.2 7.4 59 4.0 NW 19 30 10 16 1015.5 - 0.0
27/10:00am 13.4 10.9 8.3 71 2.6 N 11 19 6 10 1015.7 - 0.0
27/09:30am 12.4 10.7 8.3 76 2.1 N 7 13 4 7 1015.9 - 0.0
27/09:00am 11.4 9.7 7.7 78 1.8 NE 6 9 3 5 1016.2 1016.2 0.0
27/08:30am 10.5 9.1 7.2 80 1.6 ENE 4 9 2 5 1016.3 - 0.0
27/08:00am 9.8 9.2 7.2 84 1.3 CALM 0 0 0 0 1016.3 - 0.0
27/07:30am 9.2 7.3 6.6 84 1.2 NW 6 9 3 5 1016.3 - 0.0
27/07:00am 8.0 6.4 6.5 90 0.7 NW 4 6 2 3 1016.3 - 0.0
27/06:30am 7.7 6.9 6.6 93 0.5 CALM 0 0 0 0 1016.1 - 0.0
27/06:00am 6.2 5.2 5.6 96 0.3 CALM 0 0 0 0 1016.1 1016.1 0.0
27/05:30am 6.5 5.5 5.6 94 0.4 CALM 0 0 0 0 1015.8 - 0.0
27/05:00am 6.3 5.3 5.4 94 0.4 CALM 0 0 0 0 1015.7 - 0.0
27/04:30am 6.9 5.1 5.4 90 0.7 E 4 7 2 4 1015.9 - 0.0
27/04:00am 7.0 5.9 5.3 89 0.8 CALM 0 2 0 1 1016.2 - 0.0
27/03:30am 7.6 6.1 5.2 85 1.1 WNW 2 6 1 3 1016.4 - 0.0
27/03:00am 7.5 6.1 5.3 86 1.0 WNW 2 6 1 3 1016.7 1016.7 0.0
27/02:30am 7.4 5.1 5.0 85 1.1 NNW 6 7 3 4 1016.8 - 0.0
27/02:00am 7.5 5.3 5.5 87 0.9 N 6 11 3 6 1016.7 - 0.0
27/01:30am 6.7 4.9 5.3 91 0.6 NNE 4 9 2 5 1017.0 - 0.0
27/01:00am 5.8 4.6 4.8 93 0.4 CALM 0 0 0 0 1017.4 - 0.0
27/12:30am 6.0 3.7 4.8 92 0.5 ENE 6 7 3 4 1017.8 - 0.0
27/12:00am 5.9 4.7 4.7 92 0.5 CALM 0 0 0 0 1018.0 1017.9 0.0
 
Date/Time
CST
Temp
°C
App
Temp
°C
Dew
Point
°C
Rel
Hum
%
Delta-T
°C
Wind Press
QNH
hPa
Press
MSL
hPa
Rain since
9am
mm
Dir  Spd
km/h
Gust
km/h
Spd
kts
Gust
kts
26/11:30pm 7.1 5.3 5.4 89 0.8 E 4 7 2 4 1018.2 - 0.0
26/11:00pm 5.8 4.7 5.1 95 0.3 CALM 0 0 0 0 1018.5 - 0.0
26/10:30pm 5.7 4.5 4.8 94 0.4 CALM 0 0 0 0 1018.6 - 0.0
26/10:00pm 6.0 4.9 5.0 93 0.4 CALM 0 0 0 0 1018.8 - 0.0
26/09:30pm 6.4 5.3 5.2 92 0.5 CALM 0 0 0 0 1019.0 - 0.0
26/09:00pm 6.7 5.6 5.2 90 0.7 CALM 0 0 0 0 1018.9 1018.9 0.0
26/08:30pm 7.2 6.1 5.3 88 0.9 CALM 0 0 0 0 1018.8 - 0.0
26/08:00pm 7.4 6.3 5.2 86 1.0 CALM 0 0 0 0 1018.8 - 0.0
26/07:30pm 8.5 7.4 5.1 79 1.6 CALM 0 0 0 0 1018.9 - 0.0
26/07:00pm 9.8 8.8 5.6 75 2.0 CALM 0 0 0 0 1018.8 - 0.0
26/06:30pm 10.9 10.0 5.9 71 2.4 CALM 0 0 0 0 1018.8 - 0.0
26/06:00pm 11.9 10.9 5.8 66 2.9 CALM 0 0 0 0 1018.6 1018.6 0.0
26/05:30pm 13.8 11.7 5.9 59 3.8 W 6 7 3 4 1018.5 - 0.0
26/05:00pm 17.0 15.2 5.3 46 5.7 WNW 4 7 2 4 1018.2 - 0.0
26/04:30pm 18.3 15.2 5.5 43 6.4 NW 11 15 6 8 1018.3 - 0.0
26/04:00pm 18.8 15.3 5.6 42 6.6 NW 13 20 7 11 1018.5 - 0.0
26/03:30pm 18.7 15.6 5.5 42 6.6 WNW 11 17 6 9 1018.5 - 0.0
26/03:00pm 19.1 15.7 5.9 42 6.6 WNW 13 19 7 10 1018.5 1018.5 0.0
26/02:30pm 18.4 14.9 5.3 42 6.5 NW 13 19 7 10 1018.7 - 0.0
26/02:00pm 19.1 15.5 5.2 40 6.9 N 13 19 7 10 1019.0 - 0.0
26/01:30pm 19.1 15.3 5.6 41 6.8 NNW 15 20 8 11 1019.5 - 0.0
26/01:00pm 18.6 15.0 6.8 46 6.0 NNW 15 22 8 12 1020.0 - 0.0
26/12:30pm 18.6 14.5 6.1 44 6.3 NNW 17 24 9 13 1020.6 - 0.0
26/12:00pm 18.2 14.3 7.3 49 5.6 NNW 17 26 9 14 1021.1 1021.1 0.0
26/11:30am 17.5 14.7 8.4 55 4.8 N 13 19 7 10 1021.6 - 0.0
26/11:00am 16.6 14.1 8.1 57 4.4 N 11 17 6 9 1022.1 - 0.0
26/10:30am 15.5 13.5 8.7 64 3.5 NNW 9 15 5 8 1022.5 - 0.0
26/10:00am 14.2 12.6 8.8 70 2.8 NW 7 11 4 6 1022.7 - 0.0
26/09:30am 13.2 12.6 9.1 76 2.1 SW 2 7 1 4 1022.9 - 0.0
26/09:00am 10.6 10.1 8.0 84 1.3 CALM 0 0 0 0 1022.9 1023.0 0.0
26/08:30am 7.5 6.8 7.1 97 0.2 CALM 0 0 0 0 1022.9 - 0.0
26/08:00am 5.3 4.2 5.2 99 0.0 CALM 0 0 0 0 1022.7 - 0.0
26/07:30am 3.1 1.6 3.0 99 0.0 CALM 0 0 0 0 1022.4 - 0.0
26/07:00am 2.9 1.4 2.8 99 0.0 CALM 0 0 0 0 1022.2 - 0.0
26/06:30am 3.1 1.6 3.0 99 0.0 CALM 0 0 0 0 1022.2 - 0.0
26/06:00am 3.8 2.4 3.7 99 0.0 CALM 0 0 0 0 1022.0 1022.0 0.0
26/05:30am 4.1 2.8 4.0 99 0.0 CALM 0 0 0 0 1022.0 - 0.0
26/05:00am 3.8 2.4 3.7 99 0.0 CALM 0 0 0 0 1021.9 - 0.0
26/04:30am 4.0 2.7 3.9 99 0.0 CALM 0 0 0 0 1022.0 - 0.0
26/04:00am 4.5 3.3 4.4 99 0.0 CALM 0 0 0 0 1021.9 - 0.0
26/03:30am 4.6 3.4 4.5 99 0.0 CALM 0 0 0 0 1021.9 - 0.0
26/03:00am 4.7 3.5 4.6 99 0.0 CALM 0 0 0 0 1022.0 1022.0 0.0
26/02:30am 5.1 4.0 5.0 99 0.0 CALM 0 0 0 0 1022.1 - 0.0
26/02:00am 5.1 4.0 5.0 99 0.0 CALM 0 0 0 0 1022.1 - 0.0
26/01:30am 5.5 4.5 5.4 99 0.0 CALM 0 0 0 0 1022.2 - 0.0
26/01:00am 6.1 5.2 6.0 99 0.0 CALM 0 0 0 0 1022.4 - 0.0
26/12:30am 6.3 5.4 6.2 99 0.0 CALM 0 0 0 0 1022.6 - 0.0
26/12:00am 6.4 5.6 6.3 99 0.0 CALM 0 0 0 0 1022.7 1022.8 0.0
 
Date/Time
CST
Temp
°C
App
Temp
°C
Dew
Point
°C
Rel
Hum
%
Delta-T
°C
Wind Press
QNH
hPa
Press
MSL
hPa
Rain since
9am
mm
Dir  Spd
km/h
Gust
km/h
Spd
kts
Gust
kts
25/11:30pm 6.0 5.1 5.9 99 0.0 CALM 0 0 0 0 1022.9 - 0.0
25/11:00pm 6.0 5.1 5.9 99 0.0 CALM 0 0 0 0 1022.8 - 0.0
25/10:30pm 6.3 5.4 6.2 99 0.0 CALM 0 0 0 0 1022.7 - 0.0
25/10:00pm 6.5 5.6 6.1 97 0.2 CALM 0 0 0 0 1022.7 - 0.0
25/09:30pm 7.0 6.1 6.1 94 0.4 CALM 0 0 0 0 1022.6 - 0.0
25/09:00pm 7.8 7.1 7.1 95 0.3 CALM 0 0 0 0 1022.5 1022.6 0.0
25/08:30pm 8.1 7.3 6.4 89 0.8 CALM 0 0 0 0 1022.5 - 0.0
25/08:00pm 8.9 8.2 6.9 87 1.0 CALM 0 0 0 0 1022.5 - 0.0
25/07:30pm 10.1 9.5 7.3 83 1.4 CALM 0 0 0 0 1022.5 - 0.0
25/07:00pm 10.6 9.9 6.9 78 1.8 CALM 0 0 0 0 1022.4 - 0.0
25/06:30pm 11.8 10.7 6.7 71 2.5 SSW 2 7 1 4 1022.1 - 0.0
25/06:00pm 13.0 11.5 6.6 65 3.1 WNW 4 7 2 4 1021.9 1021.9 0.0
25/05:30pm 13.8 12.2 6.2 60 3.7 W 4 9 2 5 1021.7 - 0.0
25/05:00pm 15.6 13.4 6.3 54 4.6 W 7 13 4 7 1021.5 - 0.0
25/04:30pm 16.6 13.6 5.9 49 5.3 W 11 20 6 11 1021.5 - 0.0
25/04:00pm 17.3 14.4 6.5 49 5.4 WSW 11 20 6 11 1021.4 - 0.0
25/03:30pm 17.6 14.0 6.8 49 5.5 W 15 26 8 14 1021.3 - 0.0
25/03:00pm 17.6 14.1 7.1 50 5.3 W 15 24 8 13 1021.2 1021.2 0.0
25/02:30pm 17.7 14.2 7.4 51 5.3 WSW 15 22 8 12 1021.2 - 0.0

Other Formats:

Comma delimited format used in spreadsheet applications
http://www.bom.gov.au/fwo/IDS60801/IDS60801.95667.axf

JavaScript Object Notation format (JSON) in row-major order
http://www.bom.gov.au/fwo/IDS60801/IDS60801.95667.json